Aviation Digital Data Service (ADDS)

Output produced by METARs form (1705 UTC 24 April 2017)
found at http://www.aviationweather.gov/adds/metars/
 
TAF HLTD 240500Z 2406/2506 08014KT 8000 FEW030 SCT080
       
TAF HLGT 240500Z 2406/2506 14010KT 8000 NSC 
     BECMG 2416/2418 20008KT 
       
TAF HLKF 240500Z 2406/2506 03012KT 8000 NSC